createdAt,value
2019-03-28T00:01:30.284Z,103075.64
2019-03-28T00:04:00.176Z,103062.38
2019-03-28T00:06:30.062Z,103069.02
2019-03-28T00:08:59.919Z,103059.25
2019-03-28T00:11:29.453Z,103059.68
2019-03-28T00:13:59.189Z,103060.55
2019-03-28T00:16:29.049Z,103059.22
2019-03-28T00:18:58.562Z,103062.77
2019-03-28T00:21:29.111Z,103060.55
2019-03-28T00:24:03.570Z,103059.23
2019-03-28T00:26:33.351Z,103059.66
2019-03-28T00:29:02.797Z,103053.91
2019-03-28T00:31:32.175Z,103054.80
2019-03-28T00:34:01.569Z,103056.58
2019-03-28T00:36:32.017Z,103058.34
2019-03-28T00:39:01.620Z,103057.88
2019-03-28T00:41:31.249Z,103064.95
2019-03-28T00:44:00.996Z,103059.62
2019-03-28T00:46:30.433Z,103064.92
2019-03-28T00:49:00.131Z,103053.85
2019-03-28T00:51:32.758Z,103057.40
2019-03-28T00:54:02.506Z,103053.85
2019-03-28T00:56:44.911Z,103051.20
2019-03-28T00:59:03.516Z,103047.66
2019-03-28T01:01:33.360Z,103051.64
2019-03-28T01:04:03.167Z,103045.42
2019-03-28T01:06:32.669Z,103044.09
2019-03-28T01:09:04.169Z,103048.52
2019-03-28T01:11:33.403Z,103040.98
2019-03-28T01:14:03.354Z,103049.81
2019-03-28T01:16:33.886Z,103052.90
2019-03-28T01:19:03.254Z,103056.90
2019-03-28T01:21:32.702Z,103054.70
2019-03-28T01:24:02.928Z,103064.42
2019-03-28T01:26:32.622Z,103064.86
2019-03-28T01:29:02.437Z,103059.09
2019-03-28T01:31:32.352Z,103060.87
2019-03-28T01:34:02.465Z,103052.46
2019-03-28T01:36:31.909Z,103052.92
2019-03-28T01:39:02.117Z,103056.90
2019-03-28T01:41:32.441Z,103057.79
2019-03-28T01:44:01.976Z,103056.47
2019-03-28T01:46:31.595Z,103056.88
2019-03-28T01:49:03.583Z,103068.82
2019-03-28T01:51:33.346Z,103074.13
2019-03-28T01:54:03.330Z,103074.98
2019-03-28T01:56:33.634Z,103072.80
2019-03-28T01:59:03.509Z,103074.55
2019-03-28T02:01:33.205Z,103071.48
2019-03-28T02:04:03.816Z,103072.81
2019-03-28T02:06:34.190Z,103079.88
2019-03-28T02:09:06.114Z,103070.16
2019-03-28T02:11:36.643Z,103072.36
2019-03-28T02:14:06.466Z,103063.05
2019-03-28T02:16:36.375Z,103068.35
2019-03-28T02:19:06.235Z,103074.13
2019-03-28T02:21:36.199Z,103080.28
2019-03-28T02:24:05.813Z,103088.71
2019-03-28T02:26:35.598Z,103090.47
2019-03-28T02:29:05.501Z,103090.47
2019-03-28T02:31:35.594Z,103096.67
2019-03-28T02:34:05.051Z,103092.22
2019-03-28T02:36:34.496Z,103087.81
2019-03-28T02:39:06.542Z,103098.00
2019-03-28T02:41:37.298Z,103098.42
2019-03-28T02:44:07.076Z,103101.97
2019-03-28T02:46:36.616Z,103094.88
2019-03-28T02:49:06.384Z,103096.20
2019-03-28T02:51:36.338Z,103094.02
2019-03-28T02:54:05.847Z,103096.64
2019-03-28T02:56:35.714Z,103105.49
2019-03-28T02:59:05.564Z,103102.83
2019-03-28T03:01:35.036Z,103103.30
2019-03-28T03:04:05.090Z,103093.56
2019-03-28T03:06:34.808Z,103103.30
2019-03-28T03:09:05.871Z,103099.32
2019-03-28T03:11:36.835Z,103096.67
2019-03-28T03:14:06.430Z,103097.53
2019-03-28T03:16:35.993Z,103106.82
2019-03-28T03:19:05.872Z,103107.28
2019-03-28T03:21:36.046Z,103094.88
2019-03-28T03:24:06.159Z,103096.67
2019-03-28T03:26:35.679Z,103095.34
2019-03-28T03:29:05.632Z,103102.40
2019-03-28T03:31:38.315Z,103110.36
2019-03-28T03:34:07.926Z,103103.73
2019-03-28T03:36:37.473Z,103105.48
2019-03-28T03:39:09.202Z,103096.67
2019-03-28T03:41:41.305Z,103101.05
2019-03-28T03:44:11.137Z,103100.19
2019-03-28T03:46:40.691Z,103100.65
2019-03-28T03:49:10.335Z,103089.09
2019-03-28T03:51:40.652Z,103098.00
2019-03-28T03:54:10.615Z,103102.84
2019-03-28T03:56:40.050Z,103110.78
2019-03-28T03:59:09.696Z,103113.44
2019-03-28T04:01:40.997Z,103106.38
2019-03-28T04:04:11.205Z,103102.84
2019-03-28T04:06:41.231Z,103101.52
2019-03-28T04:09:10.874Z,103107.28
2019-03-28T04:11:40.386Z,103098.86
2019-03-28T04:14:10.283Z,103096.21
2019-03-28T04:16:40.136Z,103107.71
2019-03-28T04:19:09.568Z,103109.91
2019-03-28T04:21:39.025Z,103121.41
2019-03-28T04:24:08.784Z,103113.91
2019-03-28T04:26:38.733Z,103112.13
2019-03-28T04:29:09.157Z,103112.55
2019-03-28T04:31:38.663Z,103117.89
2019-03-28T04:34:09.555Z,103114.34
2019-03-28T04:36:40.852Z,103109.93
2019-03-28T04:39:10.888Z,103111.69
2019-03-28T04:41:40.748Z,103110.34
2019-03-28T04:44:10.268Z,103109.45
2019-03-28T04:46:40.973Z,103113.42
2019-03-28T04:49:11.200Z,103107.22
2019-03-28T04:51:41.456Z,103101.46
2019-03-28T04:54:11.152Z,103100.58
2019-03-28T04:56:40.996Z,103103.66
2019-03-28T04:59:10.987Z,103108.08
2019-03-28T05:01:40.718Z,103108.08
2019-03-28T05:04:11.016Z,103109.86
2019-03-28T05:06:40.413Z,103111.19
2019-03-28T05:09:10.349Z,103108.94
2019-03-28T05:11:40.527Z,103117.36
2019-03-28T05:14:10.253Z,103111.19
2019-03-28T05:16:40.060Z,103105.42
2019-03-28T05:19:10.712Z,103105.42
2019-03-28T05:21:40.492Z,103113.83
2019-03-28T05:24:10.240Z,103112.07
2019-03-28T05:26:41.364Z,103119.56
2019-03-28T05:29:11.084Z,103117.81
2019-03-28T05:31:41.007Z,103122.22
2019-03-28T05:34:11.059Z,103114.72
2019-03-28T05:36:41.047Z,103118.73
2019-03-28T05:39:10.822Z,103132.02
2019-03-28T05:41:42.357Z,103128.93
2019-03-28T05:44:12.075Z,103140.86
2019-03-28T05:46:42.057Z,103133.34
2019-03-28T05:49:11.897Z,103136.88
2019-03-28T05:51:41.772Z,103138.66
2019-03-28T05:54:11.655Z,103129.38
2019-03-28T05:56:41.485Z,103140.91
2019-03-28T05:59:11.568Z,103150.19
2019-03-28T06:01:42.642Z,103156.83
2019-03-28T06:04:12.417Z,103153.30
2019-03-28T06:06:41.781Z,103157.28
2019-03-28T06:09:11.140Z,103167.03
2019-03-28T06:11:40.973Z,103174.53
2019-03-28T06:14:11.059Z,103172.34
2019-03-28T06:16:40.741Z,103176.31
2019-03-28T06:19:10.763Z,103182.97
2019-03-28T06:21:41.339Z,103178.58
2019-03-28T06:24:11.667Z,103185.22
2019-03-28T06:26:41.459Z,103199.37
2019-03-28T06:29:23.150Z,103204.25
2019-03-28T06:31:54.565Z,103203.78
2019-03-28T06:34:14.511Z,103198.48
2019-03-28T06:36:44.108Z,103197.61
2019-03-28T06:39:13.857Z,103194.09
2019-03-28T06:41:44.449Z,103194.95
2019-03-28T06:44:14.955Z,103194.58
2019-03-28T06:46:44.376Z,103194.59
2019-03-28T06:49:14.070Z,103193.73
2019-03-28T06:51:45.980Z,103194.65
2019-03-28T06:54:15.382Z,103199.55
2019-03-28T06:56:45.401Z,103199.98
2019-03-28T06:59:15.143Z,103200.00
2019-03-28T07:01:44.964Z,103207.55
2019-03-28T07:04:14.583Z,103198.70
2019-03-28T07:06:44.756Z,103205.33
2019-03-28T07:09:14.667Z,103209.27
2019-03-28T07:11:44.267Z,103207.96
2019-03-28T07:14:13.779Z,103211.97
2019-03-28T07:16:43.794Z,103214.19
2019-03-28T07:19:13.850Z,103206.26
2019-03-28T07:21:44.331Z,103211.12
2019-03-28T07:24:14.308Z,103206.30
2019-03-28T07:26:43.948Z,103200.58
2019-03-28T07:29:13.465Z,103202.82
2019-03-28T07:31:43.162Z,103209.05
2019-03-28T07:34:13.658Z,103207.75
2019-03-28T07:36:43.413Z,103213.92
2019-03-28T07:39:13.488Z,103215.75
2019-03-28T07:41:43.164Z,103207.38
2019-03-28T07:44:12.714Z,103214.95
2019-03-28T07:46:42.773Z,103219.39
2019-03-28T07:49:12.479Z,103222.94
2019-03-28T07:51:42.630Z,103230.01
2019-03-28T07:54:13.330Z,103232.23
2019-03-28T07:56:43.179Z,103236.23
2019-03-28T07:59:14.821Z,103237.62
2019-03-28T08:01:45.288Z,103242.51
2019-03-28T08:04:15.054Z,103242.52
2019-03-28T08:06:50.001Z,103246.15
2019-03-28T08:09:17.706Z,103249.33
2019-03-28T08:11:48.620Z,103246.69
2019-03-28T08:14:18.378Z,103250.67
2019-03-28T08:16:48.724Z,103246.71
2019-03-28T08:19:18.554Z,103257.78
2019-03-28T08:21:49.550Z,103261.38
2019-03-28T08:24:19.199Z,103262.33
2019-03-28T08:26:48.778Z,103264.98
2019-03-28T08:29:18.824Z,103258.82
2019-03-28T08:31:50.206Z,103259.31
2019-03-28T08:34:19.788Z,103254.92
2019-03-28T08:36:51.422Z,103258.56
2019-03-28T08:39:22.258Z,103264.38
2019-03-28T08:41:51.923Z,103257.80
2019-03-28T08:44:22.816Z,103262.29
2019-03-28T08:46:52.691Z,103257.92
2019-03-28T08:49:22.131Z,103258.44
2019-03-28T08:51:55.209Z,103262.01
2019-03-28T08:54:24.782Z,103254.98
2019-03-28T08:56:54.740Z,103252.86
2019-03-28T08:59:24.752Z,103256.94
2019-03-28T09:01:54.973Z,103259.66
2019-03-28T09:04:24.541Z,103261.51
2019-03-28T09:06:54.313Z,103259.78
2019-03-28T09:09:24.397Z,103259.83
2019-03-28T09:11:53.916Z,103260.34
2019-03-28T09:14:23.935Z,103262.16
2019-03-28T09:16:53.955Z,103266.14
2019-03-28T09:19:23.413Z,103264.41
2019-03-28T09:21:53.171Z,103270.70
2019-03-28T09:24:23.712Z,103271.17
2019-03-28T09:26:53.302Z,103269.38
2019-03-28T09:29:23.068Z,103270.73
2019-03-28T09:31:52.813Z,103272.55
2019-03-28T09:34:22.627Z,103275.22
2019-03-28T09:36:52.574Z,103278.79
2019-03-28T09:39:24.839Z,103279.66
2019-03-28T09:41:56.203Z,103281.43
2019-03-28T09:44:26.481Z,103281.45
2019-03-28T09:46:56.389Z,103281.00
2019-03-28T09:49:26.416Z,103281.44
2019-03-28T09:51:56.338Z,103284.98
2019-03-28T09:54:25.757Z,103284.97
2019-03-28T09:56:55.187Z,103282.27
2019-03-28T09:59:24.894Z,103287.19
2019-03-28T10:01:55.581Z,103290.75
2019-03-28T10:04:25.142Z,103287.20
2019-03-28T10:06:54.879Z,103287.64
2019-03-28T10:09:24.547Z,103293.43
2019-03-28T10:11:54.251Z,103291.20
2019-03-28T10:14:24.155Z,103286.76
2019-03-28T10:16:53.880Z,103287.64
2019-03-28T10:19:23.282Z,103293.42
2019-03-28T10:21:55.719Z,103287.16
2019-03-28T10:24:26.392Z,103291.59
2019-03-28T10:26:55.929Z,103292.05
2019-03-28T10:29:25.383Z,103292.97
2019-03-28T10:31:55.241Z,103290.28
2019-03-28T10:34:25.405Z,103295.62
2019-03-28T10:36:56.325Z,103292.09
2019-03-28T10:39:26.236Z,103299.19
2019-03-28T10:41:55.704Z,103301.87
2019-03-28T10:44:25.468Z,103297.44
2019-03-28T10:46:55.152Z,103304.11
2019-03-28T10:49:25.129Z,103302.79
2019-03-28T10:51:54.671Z,103298.78
2019-03-28T10:54:25.878Z,103297.91
2019-03-28T10:56:57.866Z,103297.02
2019-03-28T10:59:27.171Z,103303.22
2019-03-28T11:01:57.186Z,103300.13
2019-03-28T11:04:27.083Z,103303.69
2019-03-28T11:06:56.716Z,103304.10
2019-03-28T11:09:26.272Z,103305.44
2019-03-28T11:11:56.135Z,103301.01
2019-03-28T11:14:27.853Z,103298.77
2019-03-28T11:16:57.681Z,103303.69
2019-03-28T11:19:27.418Z,103307.22
2019-03-28T11:21:59.242Z,103308.10
2019-03-28T11:24:29.159Z,103309.45
2019-03-28T11:26:59.023Z,103307.23
2019-03-28T11:29:31.322Z,103303.23
2019-03-28T11:32:01.189Z,103303.66
2019-03-28T11:34:30.778Z,103305.88
2019-03-28T11:37:00.366Z,103313.44
2019-03-28T11:39:29.972Z,103317.02
2019-03-28T11:42:00.515Z,103316.10
2019-03-28T11:44:32.771Z,103315.69
2019-03-28T11:47:02.686Z,103313.45
2019-03-28T11:49:32.314Z,103313.45
2019-03-28T11:52:02.042Z,103311.20
2019-03-28T11:54:31.467Z,103304.09
2019-03-28T11:57:01.841Z,103304.03
2019-03-28T11:59:31.660Z,103307.14
2019-03-28T12:02:18.562Z,103308.90
2019-03-28T12:04:33.143Z,103308.00
2019-03-28T12:07:02.617Z,103312.95
2019-03-28T12:09:32.356Z,103305.41
2019-03-28T12:12:02.146Z,103300.95
2019-03-28T12:14:31.625Z,103300.97
2019-03-28T12:17:01.063Z,103303.66
2019-03-28T12:19:31.075Z,103301.85
2019-03-28T12:22:02.868Z,103296.98
2019-03-28T12:24:32.283Z,103296.54
2019-03-28T12:27:02.003Z,103294.73
2019-03-28T12:29:35.494Z,103293.83
2019-03-28T12:32:13.306Z,103297.41
2019-03-28T12:34:34.763Z,103292.93
2019-03-28T12:37:04.420Z,103289.36
2019-03-28T12:39:35.216Z,103293.78
2019-03-28T12:42:04.834Z,103298.66
2019-03-28T12:44:34.570Z,103290.22
2019-03-28T12:47:04.161Z,103287.53
2019-03-28T12:49:34.008Z,103280.37
2019-03-28T12:52:04.648Z,103282.99
2019-03-28T12:54:34.057Z,103278.95
2019-03-28T12:57:04.895Z,103278.47
2019-03-28T12:59:35.185Z,103274.43
2019-03-28T13:02:08.055Z,103269.09
2019-03-28T13:04:37.548Z,103278.47
2019-03-28T13:07:07.567Z,103278.06
2019-03-28T13:09:37.151Z,103278.57
2019-03-28T13:12:06.892Z,103274.14
2019-03-28T13:14:36.591Z,103271.05
2019-03-28T13:17:06.190Z,103277.72
2019-03-28T13:19:36.008Z,103277.74
2019-03-28T13:22:05.560Z,103279.08
2019-03-28T13:24:35.485Z,103276.38
2019-03-28T13:27:04.998Z,103274.64
2019-03-28T13:29:34.856Z,103275.97
2019-03-28T13:32:04.581Z,103278.64
2019-03-28T13:34:34.085Z,103275.96
2019-03-28T13:37:04.097Z,103276.44
2019-03-28T13:39:36.692Z,103275.09
2019-03-28T13:42:06.394Z,103274.23
2019-03-28T13:44:35.964Z,103283.57
2019-03-28T13:47:05.649Z,103285.78
2019-03-28T13:49:35.042Z,103288.48
2019-03-28T13:52:04.994Z,103288.06
2019-03-28T13:54:35.152Z,103285.39
2019-03-28T13:57:04.809Z,103286.70
2019-03-28T13:59:41.544Z,103281.34
2019-03-28T14:02:11.173Z,103281.34
2019-03-28T14:04:44.929Z,103289.80
2019-03-28T14:07:19.005Z,103286.70
2019-03-28T14:09:48.677Z,103285.80
2019-03-28T14:12:18.069Z,103280.49
2019-03-28T14:14:48.540Z,103277.83
2019-03-28T14:17:27.151Z,103281.36
2019-03-28T14:20:00.342Z,103278.67
2019-03-28T14:22:29.779Z,103273.78
2019-03-28T14:24:59.701Z,103277.31
2019-03-28T14:27:43.332Z,103273.31
2019-03-28T14:30:12.958Z,103277.30
2019-03-28T14:32:52.582Z,103264.39
2019-03-28T14:35:13.924Z,103269.73
2019-03-28T14:37:47.772Z,103275.52
2019-03-28T14:40:17.806Z,103275.96
2019-03-28T14:42:47.786Z,103273.73
2019-03-28T14:45:17.407Z,103279.53
2019-03-28T14:47:52.724Z,103268.40
2019-03-28T14:50:42.254Z,103271.06
2019-03-28T14:53:11.720Z,103268.84
2019-03-28T14:55:42.147Z,103273.31
2019-03-28T14:58:13.588Z,103277.32
2019-03-28T15:00:48.019Z,103278.67
2019-03-28T15:03:26.231Z,103276.92
2019-03-28T15:05:52.936Z,103274.69
2019-03-28T15:08:22.611Z,103272.46
2019-03-28T15:10:52.482Z,103269.80
2019-03-28T15:13:22.201Z,103271.55
2019-03-28T15:15:51.734Z,103269.75
2019-03-28T15:18:21.210Z,103264.42
2019-03-28T15:20:50.789Z,103270.17
2019-03-28T15:23:20.503Z,103268.39
2019-03-28T15:25:50.123Z,103265.28
2019-03-28T15:29:11.275Z,103261.75
2019-03-28T15:34:21.686Z,103264.86
2019-03-28T15:36:51.618Z,103267.08
2019-03-28T15:39:23.169Z,103263.98
2019-03-28T15:41:52.915Z,103265.34
2019-03-28T15:44:22.964Z,103264.92
2019-03-28T15:46:52.374Z,103258.68
2019-03-28T15:49:22.021Z,103254.70
2019-03-28T15:51:51.900Z,103252.05
2019-03-28T15:54:22.204Z,103255.15
2019-03-28T15:56:52.220Z,103260.07
2019-03-28T15:59:22.080Z,103256.05
2019-03-28T16:01:53.015Z,103261.86
2019-03-28T16:04:24.830Z,103260.95
2019-03-28T16:06:55.845Z,103265.87
2019-03-28T16:09:28.400Z,103258.30
2019-03-28T16:12:02.717Z,103268.53
2019-03-28T16:14:31.146Z,103265.86
2019-03-28T16:17:03.665Z,103263.66
2019-03-28T16:19:34.854Z,103264.09
2019-03-28T16:22:04.808Z,103264.09
2019-03-28T16:24:34.845Z,103267.64
2019-03-28T16:27:04.607Z,103263.67
2019-03-28T16:29:35.584Z,103267.22
2019-03-28T16:32:06.917Z,103271.20
2019-03-28T16:34:36.765Z,103267.22
2019-03-28T16:37:06.726Z,103269.88
2019-03-28T16:39:37.854Z,103270.76
2019-03-28T16:42:07.821Z,103273.44
2019-03-28T16:44:37.785Z,103276.12
2019-03-28T16:47:07.681Z,103274.33
2019-03-28T16:49:37.952Z,103277.87
2019-03-28T16:52:08.787Z,103271.23
2019-03-28T16:54:39.088Z,103269.00
2019-03-28T16:57:09.110Z,103273.44
2019-03-28T16:59:39.032Z,103270.31
2019-03-28T17:02:09.333Z,103273.42
2019-03-28T17:04:39.329Z,103284.53
2019-03-28T17:07:09.792Z,103286.32
2019-03-28T17:09:39.852Z,103283.20
2019-03-28T17:12:09.816Z,103288.53
2019-03-28T17:14:39.383Z,103283.63
2019-03-28T17:17:09.500Z,103286.74
2019-03-28T17:19:42.554Z,103294.29
2019-03-28T17:22:12.096Z,103292.95
2019-03-28T17:24:41.985Z,103296.52
2019-03-28T17:27:11.982Z,103296.49
2019-03-28T17:29:41.765Z,103300.50
2019-03-28T17:32:11.728Z,103301.83
2019-03-28T17:34:41.713Z,103307.16
2019-03-28T17:37:11.630Z,103303.59
2019-03-28T17:42:15.947Z,103304.00
2019-03-28T17:44:47.167Z,103300.46
2019-03-28T17:47:18.048Z,103306.67
2019-03-28T17:49:48.044Z,103302.66
2019-03-28T17:52:18.895Z,103295.98
2019-03-28T17:54:52.704Z,103295.95
2019-03-28T17:57:24.072Z,103299.94
2019-03-28T17:59:54.266Z,103303.92
2019-03-28T18:02:27.128Z,103294.61
2019-03-28T18:05:09.205Z,103305.23
2019-03-28T18:07:30.900Z,103300.80
2019-03-28T18:10:00.737Z,103309.67
2019-03-28T18:12:30.268Z,103311.44
2019-03-28T18:15:00.301Z,103319.41
2019-03-28T18:17:30.436Z,103327.86
2019-03-28T18:20:00.545Z,103332.73
2019-03-28T18:22:30.729Z,103324.72
2019-03-28T18:25:00.730Z,103323.82
2019-03-28T18:27:30.841Z,103319.84
2019-03-28T18:30:00.903Z,103322.05
2019-03-28T18:32:30.896Z,103324.70
2019-03-28T18:35:05.482Z,103328.23
2019-03-28T18:37:34.480Z,103337.09
2019-03-28T18:40:04.649Z,103336.67
2019-03-28T18:42:35.248Z,103333.55
2019-03-28T18:45:07.915Z,103334.88
2019-03-28T18:47:38.526Z,103339.74
2019-03-28T18:50:08.891Z,103336.19
2019-03-28T18:52:39.339Z,103339.30
2019-03-28T18:55:09.703Z,103334.41
2019-03-28T18:57:39.831Z,103333.96
2019-03-28T19:00:12.500Z,103336.62
2019-03-28T19:02:42.618Z,103333.93
2019-03-28T19:05:19.550Z,103338.36
2019-03-28T19:07:44.368Z,103337.94
2019-03-28T19:10:14.347Z,103332.61
2019-03-28T19:12:44.319Z,103335.70
2019-03-28T19:15:14.276Z,103333.04
2019-03-28T19:17:43.951Z,103325.92
2019-03-28T19:20:14.455Z,103328.57
2019-03-28T19:22:44.554Z,103324.56
2019-03-28T19:25:15.663Z,103325.47
2019-03-28T19:27:45.312Z,103327.68
2019-03-28T19:30:15.781Z,103327.64
2019-03-28T19:32:46.143Z,103327.19
2019-03-28T19:35:16.265Z,103321.88
2019-03-28T19:37:47.229Z,103322.30
2019-03-28T19:40:17.727Z,103325.39
2019-03-28T19:42:47.717Z,103328.92
2019-03-28T19:45:29.675Z,103326.27
2019-03-28T19:47:59.453Z,103325.38
2019-03-28T19:50:29.756Z,103327.57
2019-03-28T19:52:59.677Z,103332.44
2019-03-28T19:55:29.345Z,103336.01
2019-03-28T19:57:59.106Z,103331.56
2019-03-28T20:00:29.242Z,103331.56
2019-03-28T20:03:00.563Z,103331.11
2019-03-28T20:05:30.719Z,103335.06
2019-03-28T20:08:14.454Z,103329.28
2019-03-28T20:10:35.325Z,103332.41
2019-03-28T20:13:05.540Z,103338.61
2019-03-28T20:15:35.699Z,103342.59
2019-03-28T20:18:05.600Z,103339.91
2019-03-28T20:20:35.919Z,103331.92
2019-03-28T20:23:06.725Z,103340.80
2019-03-28T20:25:36.633Z,103340.34
2019-03-28T20:28:06.808Z,103351.42
2019-03-28T20:30:36.786Z,103353.62
2019-03-28T20:33:06.656Z,103350.11
2019-03-28T20:35:36.472Z,103352.73
2019-03-28T20:38:06.349Z,103354.06
2019-03-28T20:40:36.163Z,103354.94
2019-03-28T20:43:07.989Z,103358.91
2019-03-28T20:45:40.903Z,103360.25
2019-03-28T20:48:14.772Z,103361.53
2019-03-28T20:50:47.216Z,103365.09
2019-03-28T20:53:16.832Z,103361.08
2019-03-28T20:55:46.510Z,103368.18
2019-03-28T20:58:16.261Z,103366.39
2019-03-28T21:00:47.859Z,103363.75
2019-03-28T21:03:17.647Z,103358.84
2019-03-28T21:05:47.524Z,103371.72
2019-03-28T21:08:17.215Z,103368.14
2019-03-28T21:13:40.147Z,103367.68
2019-03-28T21:16:09.712Z,103369.00
2019-03-28T21:18:39.229Z,103369.44
2019-03-28T21:21:08.869Z,103364.14
2019-03-28T21:23:38.862Z,103367.67
2019-03-28T21:26:09.130Z,103367.66
2019-03-28T21:28:47.379Z,103372.49
2019-03-28T21:31:30.737Z,103377.81
2019-03-28T21:34:00.147Z,103376.05
2019-03-28T21:36:30.511Z,103376.92
2019-03-28T21:39:00.730Z,103377.37
2019-03-28T21:41:30.628Z,103372.94
2019-03-28T21:44:00.233Z,103373.38
2019-03-28T21:46:29.854Z,103371.16
2019-03-28T21:49:01.888Z,103372.48
2019-03-28T21:51:31.562Z,103364.05
2019-03-28T21:54:01.168Z,103363.17
2019-03-28T21:56:30.897Z,103367.16
2019-03-28T21:59:00.402Z,103367.62
2019-03-28T22:01:30.074Z,103363.59
2019-03-28T22:04:01.988Z,103367.14
2019-03-28T22:06:42.468Z,103358.68
2019-03-28T22:09:03.013Z,103360.48
2019-03-28T22:11:32.851Z,103363.13
2019-03-28T22:14:17.087Z,103369.29
2019-03-28T22:20:30.419Z,103356.86
2019-03-28T22:30:22.680Z,103351.56
2019-03-28T22:36:41.153Z,103344.43
2019-03-28T22:43:06.954Z,103339.09
2019-03-28T22:49:09.243Z,103330.66
2019-03-28T22:58:38.601Z,103320.86
2019-03-28T23:05:19.495Z,103326.62
2019-03-28T23:11:52.566Z,103323.48
2019-03-28T23:18:15.722Z,103331.03
2019-03-28T23:28:38.093Z,103314.59
2019-03-28T23:35:08.067Z,103304.41
2019-03-28T23:41:01.153Z,103307.02
2019-03-28T23:43:30.546Z,103303.91
2019-03-28T23:46:03.020Z,103307.91
2019-03-28T23:48:41.774Z,103306.16
2019-03-28T23:51:11.351Z,103306.16
2019-03-28T23:53:41.222Z,103303.03
2019-03-28T23:59:40.097Z,103299.46
